LiveATC.Net - Listen to live air traffic control over the Internet!


ICAO: KAHN  IATA: AHN   Airport: Athens/Ben Epps Airport
City: Athens   State/Province: Georgia
Country: United States   Continent: North America
KAHN METAR Weather: KAHN 251151Z AUTO 00000KT 10SM CLR 16/13 A2996 RMK AO2 SLP139 T01610133 10178 20161 53008
KAHN Flight Activity (FlightAware)
KAHN Airport Info   (iFlightPlanner)
KAHN VFR Sectional Chart   (iFlightPlanner) 
KAHN IFR Low Chart   (iFlightPlanner) 

KAHN Tower
Feed Status: UP   Listeners: 2
Listen in your browser - HTML5 player (in browser, HTML5)
Click here to listen with your own player (launches your MP3 player)
KAHN Tower Audio Archives
FacilityFrequency
Athens Tower126.300

NOTICE

Unauthorized use prohibited. See LiveATC.net Terms of Service


Find LiveATC Audio Streams


Airport/ARTCC Code

Frequency Search
(e.g., 124.400, 128.75)
Site-wide search
 


Browse LiveATC Feeds
Top 50 LiveATC Feeds
LiveATC Feed Map
Bad Weather Areas

LiveATC FAQ
Offer LiveATC feed
Contact LiveATC.net
Press Inquiries

LiveATC on iPhone
LiveATC on Android

Windows Phone
Windows 8/10

LiveATC Mobile
(Mobile browser)

ATC Audio Archives
Interesting Recordings

LiveATC Forums


Home Page
About LiveATC.net
Make a Donation
Terms of Use
Privacy Policy

Canadian Air Freqs

AIRMETs/SIGMETs

FAA Airport Status
Nat'l Airspace Status
Arrival Demand Charts


Server Software By:
Icecast.org
Liquidsoap